createdAt,value
2017-12-20T00:01:07.832Z,6.88
2017-12-20T00:02:16.937Z,6.85
2017-12-20T00:03:25.766Z,6.89
2017-12-20T00:04:34.847Z,6.91
2017-12-20T00:05:43.675Z,6.92
2017-12-20T00:06:52.501Z,6.89
2017-12-20T00:08:01.331Z,6.89
2017-12-20T00:09:10.158Z,6.89
2017-12-20T00:10:19.235Z,6.99
2017-12-20T00:11:28.064Z,6.91
2017-12-20T00:12:36.892Z,6.95
2017-12-20T00:13:45.721Z,6.98
2017-12-20T00:14:54.550Z,6.97
2017-12-20T00:16:03.526Z,6.99
2017-12-20T00:17:12.355Z,6.99
2017-12-20T00:18:21.187Z,6.99
2017-12-20T00:19:30.018Z,6.99
2017-12-20T00:20:38.850Z,6.89
2017-12-20T00:21:47.671Z,6.89
2017-12-20T00:22:56.499Z,6.99
2017-12-20T00:24:05.324Z,7.02
2017-12-20T00:25:14.158Z,6.91
2017-12-20T00:26:22.985Z,6.94
2017-12-20T00:27:32.013Z,7.02
2017-12-20T00:28:40.843Z,6.99
2017-12-20T00:29:49.668Z,7.02
2017-12-20T00:30:58.768Z,7.05
2017-12-20T00:32:07.599Z,7.05
2017-12-20T00:33:16.861Z,6.98
2017-12-20T00:34:25.689Z,6.95
2017-12-20T00:35:34.517Z,6.99
2017-12-20T00:36:43.346Z,7.02
2017-12-20T00:37:52.175Z,6.88
2017-12-20T00:39:01.251Z,6.89
2017-12-20T00:40:10.080Z,6.94
2017-12-20T00:41:18.910Z,6.89
2017-12-20T00:42:27.737Z,6.88
2017-12-20T00:43:36.564Z,6.94
2017-12-20T00:44:45.643Z,6.89
2017-12-20T00:45:54.471Z,6.91
2017-12-20T00:47:03.299Z,6.91
2017-12-20T00:48:12.127Z,6.94
2017-12-20T00:49:20.955Z,6.87
2017-12-20T00:50:30.084Z,6.91
2017-12-20T00:51:39.185Z,6.88
2017-12-20T00:52:48.013Z,6.89
2017-12-20T00:53:56.940Z,6.91
2017-12-20T00:55:05.766Z,6.8
2017-12-20T00:56:14.594Z,6.94
2017-12-20T00:57:23.427Z,6.94
2017-12-20T00:58:32.256Z,6.89
2017-12-20T00:59:41.085Z,6.85
2017-12-20T01:00:49.913Z,6.85
2017-12-20T01:01:58.889Z,6.81
2017-12-20T01:03:07.720Z,6.92
2017-12-20T01:04:16.819Z,6.84
2017-12-20T01:05:25.649Z,6.91
2017-12-20T01:06:34.475Z,6.81
2017-12-20T01:07:43.303Z,6.84
2017-12-20T01:08:52.133Z,6.81
2017-12-20T01:10:00.960Z,6.92
2017-12-20T01:11:09.787Z,6.89
2017-12-20T01:12:18.614Z,6.88
2017-12-20T01:13:27.490Z,6.92
2017-12-20T01:14:36.320Z,6.89
2017-12-20T01:15:45.151Z,6.87
2017-12-20T01:16:53.978Z,6.89
2017-12-20T01:18:02.806Z,6.89
2017-12-20T01:19:11.635Z,6.97
2017-12-20T01:20:20.465Z,6.81
2017-12-20T01:21:29.294Z,6.91
2017-12-20T01:22:38.121Z,6.85
2017-12-20T01:23:47.503Z,6.79
2017-12-20T01:24:56.756Z,6.87
2017-12-20T01:26:05.636Z,6.85
2017-12-20T01:27:14.464Z,6.87
2017-12-20T01:28:23.296Z,6.89
2017-12-20T01:29:32.124Z,6.89
2017-12-20T01:30:41.052Z,6.87
2017-12-20T01:31:49.880Z,6.87
2017-12-20T01:32:58.708Z,6.85
2017-12-20T01:34:07.808Z,6.85
2017-12-20T01:35:16.635Z,6.88
2017-12-20T01:36:25.766Z,6.92
2017-12-20T01:37:34.590Z,6.88
2017-12-20T01:38:43.419Z,6.89
2017-12-20T01:39:52.246Z,6.94
2017-12-20T01:41:01.073Z,6.89
2017-12-20T01:42:10.503Z,6.87
2017-12-20T01:43:19.333Z,6.91
2017-12-20T01:44:28.168Z,6.79
2017-12-20T01:45:36.993Z,6.89
2017-12-20T01:46:45.819Z,6.85
2017-12-20T01:47:54.749Z,6.89
2017-12-20T01:49:03.577Z,6.87
2017-12-20T01:50:12.402Z,6.92
2017-12-20T01:51:21.238Z,6.81
2017-12-20T01:52:30.060Z,6.84
2017-12-20T01:53:39.188Z,6.88
2017-12-20T01:54:48.016Z,6.87
2017-12-20T01:55:56.843Z,6.95
2017-12-20T01:57:05.673Z,6.89
2017-12-20T01:58:14.503Z,6.88
2017-12-20T01:59:23.731Z,6.92
2017-12-20T02:00:32.565Z,6.95
2017-12-20T02:01:41.391Z,6.91
2017-12-20T02:02:50.216Z,6.97
2017-12-20T02:03:59.045Z,6.98
2017-12-20T02:05:08.156Z,7.05
2017-12-20T02:06:17.258Z,6.99
2017-12-20T02:07:26.087Z,6.89
2017-12-20T02:08:35.192Z,6.91
2017-12-20T02:09:44.018Z,6.99
2017-12-20T02:10:53.247Z,7.02
2017-12-20T02:12:02.075Z,6.97
2017-12-20T02:13:10.904Z,7.05
2017-12-20T02:14:20.011Z,6.99
2017-12-20T02:15:28.838Z,6.99
2017-12-20T02:16:37.772Z,6.98
2017-12-20T02:17:46.599Z,7.09
2017-12-20T02:18:55.983Z,7.12
2017-12-20T02:20:04.809Z,7.07
2017-12-20T02:21:13.638Z,7.16
2017-12-20T02:22:22.763Z,7.05
2017-12-20T02:23:31.594Z,7.15
2017-12-20T02:24:40.423Z,7.09
2017-12-20T02:25:49.521Z,7.13
2017-12-20T02:26:58.350Z,7.13
2017-12-20T02:28:07.581Z,7.23
2017-12-20T02:29:16.409Z,7.24
2017-12-20T02:30:25.240Z,7.2
2017-12-20T02:31:34.336Z,7.13
2017-12-20T02:32:43.166Z,7.17
2017-12-20T02:33:52.472Z,7.13
2017-12-20T02:35:01.861Z,7.07
2017-12-20T02:36:10.687Z,6.99
2017-12-20T02:37:19.517Z,7.05
2017-12-20T02:38:28.347Z,6.99
2017-12-20T02:39:37.658Z,7.06
2017-12-20T02:40:46.764Z,7.09
2017-12-20T02:41:55.843Z,7.25
2017-12-20T02:43:04.670Z,7.16
2017-12-20T02:44:13.497Z,7.16
2017-12-20T02:45:22.373Z,7.09
2017-12-20T02:46:31.201Z,7.1
2017-12-20T02:47:40.311Z,7.12
2017-12-20T02:48:49.143Z,7.02
2017-12-20T02:49:57.967Z,7.13
2017-12-20T02:51:07.077Z,7.15
2017-12-20T02:52:15.905Z,7.09
2017-12-20T02:53:24.733Z,7.09
2017-12-20T02:54:33.839Z,7.21
2017-12-20T02:55:42.669Z,7.12
2017-12-20T02:56:52.052Z,7.09
2017-12-20T02:58:00.885Z,7.15
2017-12-20T02:59:09.716Z,7.1
2017-12-20T03:00:18.544Z,7.09
2017-12-20T03:01:27.368Z,7.17
2017-12-20T03:02:36.199Z,7.1
2017-12-20T03:03:45.030Z,7.09
2017-12-20T03:04:53.908Z,7.13
2017-12-20T03:06:03.016Z,7.03
2017-12-20T03:07:11.843Z,7.07
2017-12-20T03:08:20.930Z,7.06
2017-12-20T03:09:30.035Z,7.02
2017-12-20T03:10:38.863Z,7.1
2017-12-20T03:11:47.692Z,7.05
2017-12-20T03:12:56.518Z,7.06
2017-12-20T03:14:05.647Z,7.06
2017-12-20T03:15:14.475Z,6.95
2017-12-20T03:16:23.303Z,6.99
2017-12-20T03:17:32.130Z,7.03
2017-12-20T03:18:40.957Z,7.06
2017-12-20T03:19:49.886Z,6.99
2017-12-20T03:20:58.714Z,7.12
2017-12-20T03:22:07.544Z,7.06
2017-12-20T03:23:16.372Z,7.02
2017-12-20T03:24:25.202Z,7.12
2017-12-20T03:25:34.178Z,7.12
2017-12-20T03:26:43.009Z,7.12
2017-12-20T03:27:51.838Z,7.1
2017-12-20T03:29:00.665Z,7.15
2017-12-20T03:30:09.495Z,7.1
2017-12-20T03:31:18.625Z,7.09
2017-12-20T03:32:27.451Z,7.13
2017-12-20T03:33:36.554Z,7.13
2017-12-20T03:34:45.384Z,7.13
2017-12-20T03:35:54.212Z,7.12
2017-12-20T03:37:03.040Z,7.12
2017-12-20T03:38:11.868Z,7.02
2017-12-20T03:39:20.972Z,7.09
2017-12-20T03:40:29.799Z,7.03
2017-12-20T03:41:38.628Z,7.1
2017-12-20T03:42:47.885Z,7.17
2017-12-20T03:43:56.714Z,7.09
2017-12-20T03:45:05.542Z,7.03
2017-12-20T03:46:14.368Z,7.09
2017-12-20T03:47:23.200Z,7.13
2017-12-20T03:48:32.131Z,7.1
2017-12-20T03:49:40.962Z,7.12
2017-12-20T03:50:49.786Z,7.1
2017-12-20T03:51:58.618Z,7.03
2017-12-20T03:53:07.443Z,7.05
2017-12-20T03:54:16.476Z,7.09
2017-12-20T03:55:25.581Z,7.06
2017-12-20T03:56:34.423Z,7.02
2017-12-20T03:57:43.513Z,6.98
2017-12-20T03:58:52.341Z,6.91
2017-12-20T04:00:01.418Z,7.03
2017-12-20T04:01:10.247Z,6.98
2017-12-20T04:02:19.354Z,7.05
2017-12-20T04:03:28.186Z,7.05
2017-12-20T04:04:37.285Z,6.99
2017-12-20T04:05:46.112Z,7.05
2017-12-20T04:06:54.942Z,7.02
2017-12-20T04:08:03.769Z,6.88
2017-12-20T04:09:12.599Z,6.98
2017-12-20T04:10:21.429Z,7.02
2017-12-20T04:11:30.404Z,7.02
2017-12-20T04:12:39.241Z,7.06
2017-12-20T04:13:48.066Z,7.02
2017-12-20T04:14:56.895Z,6.99
2017-12-20T04:16:05.723Z,7.03
2017-12-20T04:17:14.803Z,7.02
2017-12-20T04:18:23.632Z,6.99
2017-12-20T04:19:32.460Z,6.88
2017-12-20T04:20:41.288Z,6.92
2017-12-20T04:21:50.114Z,6.98
2017-12-20T04:22:59.044Z,7.02
2017-12-20T04:24:07.873Z,7.02
2017-12-20T04:25:16.703Z,6.97
2017-12-20T04:26:25.526Z,7.02
2017-12-20T04:27:34.357Z,7.02
2017-12-20T04:28:43.607Z,7.06
2017-12-20T04:29:52.433Z,7.02
2017-12-20T04:31:01.267Z,7.02
2017-12-20T04:32:10.099Z,6.99
2017-12-20T04:33:18.930Z,7.05
2017-12-20T04:34:28.089Z,7.06
2017-12-20T04:35:36.912Z,7.07
2017-12-20T04:36:45.744Z,7.05
2017-12-20T04:37:54.616Z,6.98
2017-12-20T04:39:03.441Z,7.07
2017-12-20T04:40:12.273Z,7.02
2017-12-20T04:41:21.107Z,7.06
2017-12-20T04:42:29.927Z,7.05
2017-12-20T04:43:38.757Z,6.99
2017-12-20T04:44:47.863Z,7.02
2017-12-20T04:45:56.843Z,7.05
2017-12-20T04:47:05.671Z,7.03
2017-12-20T04:48:14.497Z,7.02
2017-12-20T04:49:23.327Z,6.98
2017-12-20T04:50:32.152Z,7.07
2017-12-20T04:51:41.136Z,7.03
2017-12-20T04:52:49.960Z,7.05
2017-12-20T04:53:58.789Z,6.98
2017-12-20T04:55:07.892Z,7.03
2017-12-20T04:56:16.723Z,6.98
2017-12-20T04:57:25.850Z,7.05
2017-12-20T04:58:34.679Z,6.88
2017-12-20T04:59:43.506Z,7.02
2017-12-20T05:00:52.612Z,6.92
2017-12-20T05:02:01.439Z,7.03
2017-12-20T05:03:10.368Z,7.03
2017-12-20T05:04:19.198Z,6.99
2017-12-20T05:05:28.023Z,6.99
2017-12-20T05:06:36.859Z,7.05
2017-12-20T05:07:45.681Z,6.99
2017-12-20T05:08:54.813Z,7.05
2017-12-20T05:10:03.643Z,7.09
2017-12-20T05:11:12.469Z,7.02
2017-12-20T05:12:21.295Z,7.03
2017-12-20T05:13:30.125Z,7.05
2017-12-20T05:14:38.951Z,7.05
2017-12-20T05:15:47.778Z,7.03
2017-12-20T05:16:56.882Z,6.99
2017-12-20T05:18:05.707Z,7.02
2017-12-20T05:19:14.532Z,6.98
2017-12-20T05:20:23.410Z,6.99
2017-12-20T05:21:32.517Z,6.99
2017-12-20T05:22:41.342Z,7.02
2017-12-20T05:23:50.170Z,6.95
2017-12-20T05:24:58.997Z,6.92
2017-12-20T05:26:08.124Z,6.97
2017-12-20T05:27:16.951Z,7.03
2017-12-20T05:28:25.778Z,6.92
2017-12-20T05:29:34.610Z,6.97
2017-12-20T05:30:43.437Z,6.89
2017-12-20T05:31:52.483Z,6.84
2017-12-20T05:33:01.295Z,6.94
2017-12-20T05:34:10.128Z,6.88
2017-12-20T05:35:18.956Z,6.89
2017-12-20T05:36:27.782Z,6.94
2017-12-20T05:37:36.612Z,6.91
2017-12-20T05:38:45.717Z,6.89
2017-12-20T05:39:54.542Z,6.89
2017-12-20T05:41:03.371Z,6.87
2017-12-20T05:42:12.201Z,6.89
2017-12-20T05:43:21.034Z,6.92
2017-12-20T05:44:29.860Z,6.92
2017-12-20T05:45:38.687Z,6.92
2017-12-20T05:46:47.515Z,6.95
2017-12-20T05:47:56.343Z,6.92
2017-12-20T05:49:05.171Z,7.02
2017-12-20T05:50:14.000Z,6.91
2017-12-20T05:51:22.831Z,6.92
2017-12-20T05:52:31.939Z,6.89
2017-12-20T05:53:40.769Z,6.88
2017-12-20T05:54:49.598Z,6.91
2017-12-20T05:55:58.428Z,6.98
2017-12-20T05:57:07.258Z,6.91
2017-12-20T05:58:16.088Z,6.91
2017-12-20T05:59:24.913Z,6.91
2017-12-20T06:00:33.740Z,6.88
2017-12-20T06:01:42.569Z,6.89
2017-12-20T06:02:51.698Z,6.94
2017-12-20T06:04:00.527Z,6.88
2017-12-20T06:05:09.632Z,7.02
2017-12-20T06:06:18.461Z,7.06
2017-12-20T06:07:27.343Z,7.05
2017-12-20T06:08:36.748Z,7.03
2017-12-20T06:09:45.578Z,7.03
2017-12-20T06:10:54.407Z,7.03
2017-12-20T06:12:03.237Z,7.12
2017-12-20T06:13:12.068Z,7.1
2017-12-20T06:14:20.948Z,7.06
2017-12-20T06:15:29.778Z,7.09
2017-12-20T06:16:38.610Z,7.03
2017-12-20T06:17:47.718Z,7.05
2017-12-20T06:18:56.817Z,7.03
2017-12-20T06:20:05.745Z,7.03
2017-12-20T06:21:14.574Z,6.98
2017-12-20T06:22:23.403Z,6.95
2017-12-20T06:23:32.233Z,7.03
2017-12-20T06:24:41.062Z,6.94
2017-12-20T06:25:49.902Z,6.85
2017-12-20T06:26:59.016Z,6.85
2017-12-20T06:28:07.852Z,6.92
2017-12-20T06:29:16.683Z,6.97
2017-12-20T06:30:25.513Z,6.92
2017-12-20T06:31:34.338Z,7.05
2017-12-20T06:32:43.168Z,6.95
2017-12-20T06:33:52.277Z,7.05
2017-12-20T06:35:01.107Z,7.02
2017-12-20T06:36:09.935Z,7.05
2017-12-20T06:37:18.770Z,6.99
2017-12-20T06:38:27.591Z,7.06
2017-12-20T06:39:36.419Z,6.98
2017-12-20T06:40:45.246Z,7.09
2017-12-20T06:41:54.075Z,7.07
2017-12-20T06:43:02.904Z,6.99
2017-12-20T06:44:11.730Z,7.03
2017-12-20T06:45:20.563Z,7.12
2017-12-20T06:46:29.665Z,7.09
2017-12-20T06:47:38.493Z,7.16
2017-12-20T06:48:47.592Z,7.16
2017-12-20T06:49:56.420Z,7.16
2017-12-20T06:51:05.248Z,7.12
2017-12-20T06:52:14.077Z,7.09
2017-12-20T06:53:22.902Z,7.13
2017-12-20T06:54:31.731Z,7.16
2017-12-20T06:55:40.561Z,7.09
2017-12-20T06:56:49.393Z,7.15
2017-12-20T06:57:58.222Z,7.12
2017-12-20T06:59:07.331Z,7.09
2017-12-20T07:00:16.160Z,7.16
2017-12-20T07:01:24.990Z,7.13
2017-12-20T07:02:34.140Z,7.12
2017-12-20T07:03:42.970Z,7.12
2017-12-20T07:04:51.801Z,6.99
2017-12-20T07:06:00.912Z,7.12
2017-12-20T07:07:09.739Z,7.07
2017-12-20T07:08:18.716Z,7.1
2017-12-20T07:09:27.545Z,7.06
2017-12-20T07:10:36.374Z,7.05
2017-12-20T07:11:45.203Z,7.07
2017-12-20T07:12:54.035Z,7.05
2017-12-20T07:14:02.862Z,7.07
2017-12-20T07:15:11.689Z,7.06
2017-12-20T07:16:20.519Z,7.03
2017-12-20T07:17:29.349Z,7.12
2017-12-20T07:18:38.177Z,7.15
2017-12-20T07:19:47.208Z,7.1
2017-12-20T07:20:56.037Z,7.07
2017-12-20T07:22:04.865Z,7.07
2017-12-20T07:23:13.693Z,7.16
2017-12-20T07:24:22.521Z,7.05
2017-12-20T07:25:31.650Z,7.06
2017-12-20T07:26:40.498Z,6.97
2017-12-20T07:27:49.651Z,7.02
2017-12-20T07:28:58.561Z,6.99
2017-12-20T07:30:07.566Z,7.06
2017-12-20T07:31:16.553Z,7.06
2017-12-20T07:32:25.522Z,7.03
2017-12-20T07:33:34.863Z,6.99
2017-12-20T07:34:43.810Z,7.07
2017-12-20T07:35:52.982Z,7.06
2017-12-20T07:37:02.500Z,7.02
2017-12-20T07:38:11.657Z,6.99
2017-12-20T07:39:20.935Z,7.1
2017-12-20T07:40:29.861Z,7.03
2017-12-20T07:41:38.858Z,7.05
2017-12-20T07:42:48.367Z,7.1
2017-12-20T07:43:57.736Z,7.07
2017-12-20T07:45:07.182Z,7.13
2017-12-20T07:46:16.146Z,7.12
2017-12-20T07:47:25.201Z,7.07
2017-12-20T07:48:34.635Z,7.1
2017-12-20T07:49:43.686Z,7.09
2017-12-20T07:50:52.717Z,7.05
2017-12-20T07:52:01.605Z,7.05
2017-12-20T07:53:10.445Z,6.99
2017-12-20T07:54:19.396Z,7.02
2017-12-20T07:55:28.271Z,7.02
2017-12-20T07:56:37.182Z,7.03
2017-12-20T07:57:46.223Z,6.98
2017-12-20T07:58:55.054Z,7.03
2017-12-20T08:00:04.133Z,7.02
2017-12-20T08:01:12.962Z,6.98
2017-12-20T08:02:21.792Z,6.99
2017-12-20T08:03:30.617Z,7.05
2017-12-20T08:04:39.445Z,7.02
2017-12-20T08:05:48.325Z,7.05
2017-12-20T08:06:57.151Z,7.05
2017-12-20T08:08:05.980Z,7.03
2017-12-20T08:09:14.810Z,6.91
2017-12-20T08:10:23.636Z,6.99
2017-12-20T08:11:32.766Z,6.95
2017-12-20T08:12:41.600Z,7.02
2017-12-20T08:13:50.421Z,6.99
2017-12-20T08:14:59.250Z,7.05
2017-12-20T08:16:08.077Z,7.02
2017-12-20T08:17:16.904Z,6.99
2017-12-20T08:18:25.732Z,6.97
2017-12-20T08:19:34.562Z,7.02
2017-12-20T08:20:43.398Z,6.98
2017-12-20T08:21:52.504Z,7.06
2017-12-20T08:23:01.332Z,7.1
2017-12-20T08:24:10.161Z,7.09
2017-12-20T08:25:18.990Z,7.13
2017-12-20T08:26:27.823Z,7.2
2017-12-20T08:27:36.653Z,7.23
2017-12-20T08:28:45.732Z,7.16
2017-12-20T08:29:54.838Z,7.13
2017-12-20T08:31:03.667Z,7.16
2017-12-20T08:32:12.495Z,7.2
2017-12-20T08:33:21.322Z,7.2
2017-12-20T08:34:30.163Z,7.23
2017-12-20T08:35:38.982Z,7.21
2017-12-20T08:36:47.818Z,7.2
2017-12-20T08:37:56.653Z,7.24
2017-12-20T08:39:05.758Z,7.21
2017-12-20T08:40:14.841Z,7.23
2017-12-20T08:41:23.672Z,7.16
2017-12-20T08:42:32.498Z,7.2
2017-12-20T08:43:41.327Z,7.2
2017-12-20T08:44:50.155Z,7.2
2017-12-20T08:45:59.085Z,7.2
2017-12-20T08:47:07.915Z,7.28
2017-12-20T08:48:16.743Z,7.28
2017-12-20T08:49:25.572Z,7.25
2017-12-20T08:50:34.402Z,7.3
2017-12-20T08:51:43.632Z,7.31
2017-12-20T08:52:52.458Z,7.3
2017-12-20T08:54:01.289Z,7.31
2017-12-20T08:55:10.112Z,7.28
2017-12-20T08:56:18.941Z,7.31
2017-12-20T08:57:28.074Z,7.37
2017-12-20T08:58:36.900Z,7.43
2017-12-20T08:59:45.728Z,7.31
2017-12-20T09:00:54.557Z,7.46
2017-12-20T09:02:03.388Z,7.43
2017-12-20T09:03:12.369Z,7.46
2017-12-20T09:04:21.197Z,7.48
2017-12-20T09:05:30.028Z,7.42
2017-12-20T09:06:39.130Z,7.4
2017-12-20T09:07:47.958Z,7.28
2017-12-20T09:08:56.837Z,7.3
2017-12-20T09:10:05.673Z,7.28
2017-12-20T09:11:14.497Z,7.31
2017-12-20T09:12:23.324Z,7.31
2017-12-20T09:13:32.163Z,7.3
2017-12-20T09:14:40.984Z,7.31
2017-12-20T09:15:49.813Z,7.34
2017-12-20T09:16:58.644Z,7.31
2017-12-20T09:18:07.471Z,7.32
2017-12-20T09:19:16.301Z,7.3
2017-12-20T09:20:25.712Z,7.34
2017-12-20T09:21:34.540Z,7.34
2017-12-20T09:22:43.370Z,7.3
2017-12-20T09:23:52.198Z,7.32
2017-12-20T09:25:01.028Z,7.32
2017-12-20T09:26:09.908Z,7.32
2017-12-20T09:27:18.733Z,7.34
2017-12-20T09:28:27.562Z,7.3
2017-12-20T09:29:36.388Z,7.34
2017-12-20T09:30:45.215Z,7.34
2017-12-20T09:31:54.118Z,7.35
2017-12-20T09:33:02.926Z,7.3
2017-12-20T09:34:11.753Z,7.3
2017-12-20T09:35:20.582Z,7.35
2017-12-20T09:36:29.414Z,7.45
2017-12-20T09:37:38.632Z,7.48
2017-12-20T09:38:47.458Z,7.45
2017-12-20T09:39:56.291Z,7.43
2017-12-20T09:41:05.121Z,7.34
2017-12-20T09:42:13.950Z,7.46
2017-12-20T09:43:23.180Z,7.45
2017-12-20T09:44:32.009Z,7.37
2017-12-20T09:45:40.834Z,7.49
2017-12-20T09:46:49.663Z,7.52
2017-12-20T09:47:58.491Z,7.49
2017-12-20T09:49:07.319Z,7.57
2017-12-20T09:50:16.148Z,7.5
2017-12-20T09:51:24.978Z,7.45
2017-12-20T09:52:33.808Z,7.42
2017-12-20T09:53:42.639Z,7.46
2017-12-20T09:54:51.567Z,7.49
2017-12-20T09:56:00.397Z,7.49
2017-12-20T09:57:09.226Z,7.55
2017-12-20T09:58:18.054Z,7.61
2017-12-20T09:59:26.884Z,7.57
2017-12-20T10:00:35.815Z,7.58
2017-12-20T10:01:44.645Z,7.6
2017-12-20T10:02:53.475Z,7.57
2017-12-20T10:04:02.304Z,7.49
2017-12-20T10:05:11.136Z,7.49
2017-12-20T10:06:20.115Z,7.58
2017-12-20T10:07:28.942Z,7.6
2017-12-20T10:08:38.046Z,7.64
2017-12-20T10:09:46.874Z,7.6
2017-12-20T10:10:55.705Z,7.69
2017-12-20T10:12:04.583Z,7.71
2017-12-20T10:13:13.411Z,7.69
2017-12-20T10:14:22.242Z,7.8
2017-12-20T10:15:31.073Z,7.79
2017-12-20T10:16:39.902Z,7.71
2017-12-20T10:17:48.780Z,7.77
2017-12-20T10:18:57.610Z,7.8
2017-12-20T10:20:06.449Z,7.82
2017-12-20T10:21:15.278Z,7.83
2017-12-20T10:22:24.383Z,7.83
2017-12-20T10:23:33.363Z,7.79
2017-12-20T10:24:42.469Z,7.68
2017-12-20T10:25:51.294Z,7.68
2017-12-20T10:27:00.126Z,7.69
2017-12-20T10:28:08.955Z,7.71
2017-12-20T10:29:17.837Z,7.69
2017-12-20T10:30:26.665Z,7.69
2017-12-20T10:31:35.496Z,7.68
2017-12-20T10:32:44.328Z,7.67
2017-12-20T10:33:53.158Z,7.63
2017-12-20T10:35:02.385Z,7.57
2017-12-20T10:36:11.215Z,7.57
2017-12-20T10:37:20.045Z,7.53
2017-12-20T10:38:29.425Z,7.64
2017-12-20T10:39:38.255Z,7.67
2017-12-20T10:40:47.134Z,7.75
2017-12-20T10:41:55.966Z,7.74
2017-12-20T10:43:04.794Z,7.67
2017-12-20T10:44:13.624Z,7.64
2017-12-20T10:45:22.454Z,7.68
2017-12-20T10:46:31.685Z,7.71
2017-12-20T10:47:40.520Z,7.72
2017-12-20T10:48:49.350Z,7.68
2017-12-20T10:49:58.180Z,7.74
2017-12-20T10:51:07.009Z,7.68
2017-12-20T10:52:16.262Z,7.68
2017-12-20T10:53:25.091Z,7.69
2017-12-20T10:54:33.920Z,7.77
2017-12-20T10:55:42.749Z,7.72
2017-12-20T10:56:51.855Z,7.83
2017-12-20T10:58:00.686Z,7.69
2017-12-20T10:59:09.788Z,7.87
2017-12-20T11:00:18.616Z,7.85
2017-12-20T11:01:27.442Z,7.85
2017-12-20T11:02:36.272Z,7.86
2017-12-20T11:03:45.149Z,7.82
2017-12-20T11:04:53.980Z,7.86
2017-12-20T11:06:03.080Z,7.85
2017-12-20T11:07:11.911Z,7.89
2017-12-20T11:08:21.021Z,7.87
2017-12-20T11:09:30.004Z,7.87
2017-12-20T11:10:38.831Z,7.87
2017-12-20T11:11:47.940Z,7.92
2017-12-20T11:12:56.769Z,7.89
2017-12-20T11:14:05.596Z,7.95
2017-12-20T11:15:14.578Z,7.9
2017-12-20T11:16:23.409Z,7.95
2017-12-20T11:17:32.238Z,7.86
2017-12-20T11:18:41.067Z,7.86
2017-12-20T11:19:49.896Z,7.93
2017-12-20T11:20:59.025Z,7.87
2017-12-20T11:22:07.854Z,7.9
2017-12-20T11:23:16.686Z,7.9
2017-12-20T11:24:25.517Z,7.93
2017-12-20T11:25:34.346Z,7.92
2017-12-20T11:26:43.324Z,7.97
2017-12-20T11:27:52.156Z,7.92
2017-12-20T11:29:00.986Z,8.01
2017-12-20T11:30:09.817Z,7.92
2017-12-20T11:31:18.650Z,7.83
2017-12-20T11:32:27.804Z,8.01
2017-12-20T11:33:36.634Z,8.1
2017-12-20T11:34:45.464Z,8.04
2017-12-20T11:35:54.575Z,8.1
2017-12-20T11:37:03.401Z,8.11
2017-12-20T11:38:12.385Z,8.01
2017-12-20T11:39:21.212Z,8.05
2017-12-20T11:40:30.039Z,8.12
2017-12-20T11:41:38.869Z,8.1
2017-12-20T11:42:47.703Z,8.12
2017-12-20T11:43:56.856Z,8.04
2017-12-20T11:45:05.683Z,8.12
2017-12-20T11:46:14.511Z,8.08
2017-12-20T11:47:23.615Z,8.12
2017-12-20T11:48:32.446Z,8.15
2017-12-20T11:49:41.376Z,8.11
2017-12-20T11:50:50.203Z,8.18
2017-12-20T11:51:59.308Z,8.26
2017-12-20T11:53:08.138Z,8.33
2017-12-20T11:54:16.967Z,8.3
2017-12-20T11:55:26.168Z,8.25
2017-12-20T11:56:34.997Z,8.3
2017-12-20T11:57:44.102Z,8.23
2017-12-20T11:58:52.934Z,8.11
2017-12-20T12:00:02.139Z,8.18
2017-12-20T12:01:10.968Z,8.15
2017-12-20T12:02:19.797Z,8.19
2017-12-20T12:03:28.624Z,8.15
2017-12-20T12:04:37.453Z,8.18
2017-12-20T12:05:46.283Z,8.11
2017-12-20T12:06:55.211Z,8.2
2017-12-20T12:08:04.044Z,8.19
2017-12-20T12:09:12.876Z,8.23
2017-12-20T12:10:21.708Z,8.28
2017-12-20T12:11:30.536Z,8.28
2017-12-20T12:12:39.668Z,8.29
2017-12-20T12:13:48.498Z,8.34
2017-12-20T12:14:57.429Z,8.36
2017-12-20T12:16:06.536Z,8.34
2017-12-20T12:17:15.639Z,8.28
2017-12-20T12:18:24.521Z,8.41
2017-12-20T12:19:33.660Z,8.26
2017-12-20T12:20:42.490Z,8.25
2017-12-20T12:21:51.320Z,8.23
2017-12-20T12:23:00.151Z,8.25
2017-12-20T12:24:08.981Z,8.28
2017-12-20T12:25:17.811Z,8.28
2017-12-20T12:26:26.911Z,8.28
2017-12-20T12:27:35.742Z,8.23
2017-12-20T12:28:44.573Z,8.33
2017-12-20T12:29:53.559Z,8.34
2017-12-20T12:31:02.389Z,8.33
2017-12-20T12:32:11.223Z,8.33
2017-12-20T12:33:20.052Z,8.4
2017-12-20T12:34:29.156Z,8.45
2017-12-20T12:35:38.035Z,8.44
2017-12-20T12:36:46.864Z,8.43
2017-12-20T12:37:55.696Z,8.38
2017-12-20T12:39:04.527Z,8.43
2017-12-20T12:40:13.376Z,8.45
2017-12-20T12:41:22.485Z,8.41
2017-12-20T12:42:31.317Z,8.43
2017-12-20T12:43:40.151Z,8.38
2017-12-20T12:44:49.256Z,8.37
2017-12-20T12:45:58.087Z,8.44
2017-12-20T12:47:07.290Z,8.44
2017-12-20T12:48:16.119Z,8.4
2017-12-20T12:49:24.951Z,8.41
2017-12-20T12:50:33.781Z,8.44
2017-12-20T12:51:42.609Z,8.41
2017-12-20T12:52:51.589Z,8.38
2017-12-20T12:54:00.694Z,8.37
2017-12-20T12:55:09.528Z,8.37
2017-12-20T12:56:18.360Z,8.4
2017-12-20T12:57:27.190Z,8.44
2017-12-20T12:58:36.170Z,8.37
2017-12-20T12:59:45.000Z,8.4
2017-12-20T13:00:53.831Z,8.41
2017-12-20T13:02:02.660Z,8.43
2017-12-20T13:03:11.489Z,8.4
2017-12-20T13:04:20.418Z,8.41
2017-12-20T13:05:29.249Z,8.4
2017-12-20T13:06:38.081Z,8.44
2017-12-20T13:07:46.912Z,8.41
2017-12-20T13:08:55.743Z,8.41
2017-12-20T13:10:04.571Z,8.38
2017-12-20T13:11:13.402Z,8.43
2017-12-20T13:12:22.233Z,8.4
2017-12-20T13:13:31.061Z,8.41
2017-12-20T13:14:39.892Z,8.28
2017-12-20T13:15:48.726Z,8.29
2017-12-20T13:16:57.564Z,8.3
2017-12-20T13:18:06.393Z,8.33
2017-12-20T13:19:15.230Z,8.48
2017-12-20T13:20:24.071Z,8.43
2017-12-20T13:21:32.956Z,8.38
2017-12-20T13:22:41.785Z,8.38
2017-12-20T13:23:50.615Z,8.33
2017-12-20T13:24:59.446Z,8.3
2017-12-20T13:26:08.276Z,8.44
2017-12-20T13:27:17.408Z,8.3
2017-12-20T13:28:26.240Z,8.38
2017-12-20T13:29:35.347Z,8.38
2017-12-20T13:30:44.177Z,8.34
2017-12-20T13:31:53.010Z,8.38
2017-12-20T13:33:01.997Z,8.37
2017-12-20T13:34:11.107Z,8.4
2017-12-20T13:35:19.942Z,8.45
2017-12-20T13:36:28.768Z,8.47
2017-12-20T13:37:37.600Z,8.44
2017-12-20T13:38:46.579Z,8.37
2017-12-20T13:39:55.412Z,8.48
2017-12-20T13:41:04.240Z,8.45
2017-12-20T13:42:13.350Z,8.47
2017-12-20T13:43:22.181Z,8.47
2017-12-20T13:44:31.059Z,8.53
2017-12-20T13:45:39.899Z,8.41
2017-12-20T13:46:48.730Z,8.45
2017-12-20T13:47:57.586Z,8.52
2017-12-20T13:49:06.416Z,8.4
2017-12-20T13:50:15.348Z,8.43
2017-12-20T13:51:24.180Z,8.38
2017-12-20T13:52:33.285Z,8.4
2017-12-20T13:53:42.401Z,8.36
2017-12-20T13:54:51.226Z,8.38
2017-12-20T13:56:00.108Z,8.37
2017-12-20T13:57:08.939Z,8.41
2017-12-20T13:58:17.767Z,8.43
2017-12-20T13:59:26.597Z,8.38
2017-12-20T14:00:35.430Z,8.41
2017-12-20T14:01:44.613Z,8.36
2017-12-20T14:02:53.387Z,8.41
2017-12-20T14:04:02.222Z,8.47
2017-12-20T14:05:11.047Z,8.43
2017-12-20T14:06:19.892Z,8.4
2017-12-20T14:07:29.140Z,8.41
2017-12-20T14:08:37.975Z,8.36
2017-12-20T14:09:46.804Z,8.38
2017-12-20T14:10:55.637Z,8.44
2017-12-20T14:12:04.742Z,8.45
2017-12-20T14:13:13.728Z,8.43
2017-12-20T14:14:22.553Z,8.4
2017-12-20T14:15:31.387Z,8.5
2017-12-20T14:16:40.221Z,8.47
2017-12-20T14:17:49.052Z,8.45
2017-12-20T14:18:58.253Z,8.48
2017-12-20T14:20:07.083Z,8.41
2017-12-20T14:21:15.911Z,8.44
2017-12-20T14:22:24.741Z,8.45
2017-12-20T14:23:33.573Z,8.48
2017-12-20T14:24:42.407Z,8.44
2017-12-20T14:25:51.240Z,8.47
2017-12-20T14:27:00.076Z,8.44
2017-12-20T14:28:08.912Z,8.48
2017-12-20T14:29:17.737Z,8.45
2017-12-20T14:30:26.670Z,8.44
2017-12-20T14:31:35.495Z,8.43
2017-12-20T14:32:44.328Z,8.4
2017-12-20T14:33:53.157Z,8.43
2017-12-20T14:35:02.086Z,8.33
2017-12-20T14:36:10.916Z,8.38
2017-12-20T14:37:19.749Z,8.36
2017-12-20T14:38:28.574Z,8.33
2017-12-20T14:39:37.407Z,8.33
2017-12-20T14:40:46.235Z,8.29
2017-12-20T14:41:55.169Z,8.34
2017-12-20T14:43:03.998Z,8.34
2017-12-20T14:44:13.105Z,8.36
2017-12-20T14:45:21.938Z,8.33
2017-12-20T14:46:30.768Z,8.38
2017-12-20T14:47:39.598Z,8.36
2017-12-20T14:48:48.434Z,8.34
2017-12-20T14:49:57.535Z,8.28
2017-12-20T14:51:06.365Z,8.34
2017-12-20T14:52:15.194Z,8.41
2017-12-20T14:53:24.074Z,8.44
2017-12-20T14:54:32.903Z,8.38
2017-12-20T14:55:41.731Z,8.36
2017-12-20T14:56:50.562Z,8.36
2017-12-20T14:57:59.400Z,8.37
2017-12-20T14:59:08.335Z,8.4
2017-12-20T15:00:17.166Z,8.43
2017-12-20T15:01:25.996Z,8.34
2017-12-20T15:02:34.824Z,8.26
2017-12-20T15:03:43.652Z,8.28
2017-12-20T15:04:52.531Z,8.33
2017-12-20T15:06:01.362Z,8.29
2017-12-20T15:07:10.190Z,8.36
2017-12-20T15:08:19.022Z,8.3
2017-12-20T15:09:27.851Z,8.28
2017-12-20T15:10:36.681Z,8.34
2017-12-20T15:11:45.511Z,8.36
2017-12-20T15:12:54.368Z,8.33
2017-12-20T15:14:03.168Z,8.4
2017-12-20T15:15:11.998Z,8.33
2017-12-20T15:16:21.128Z,8.29
2017-12-20T15:17:29.958Z,8.22
2017-12-20T15:18:38.788Z,8.16
2017-12-20T15:19:47.619Z,8.2